sensor_id;sensor_type;location;lat;lon;timestamp;temperature;humidity
6106;DHT22;3083;51.508;7.966;2022-07-09T00:01:02;15.90;99.90
6106;DHT22;3083;51.508;7.966;2022-07-09T00:03:29;15.90;99.90
6106;DHT22;3083;51.508;7.966;2022-07-09T00:05:56;15.90;99.90
6106;DHT22;3083;51.508;7.966;2022-07-09T00:08:23;15.90;99.90
6106;DHT22;3083;51.508;7.966;2022-07-09T00:10:51;15.80;99.90
6106;DHT22;3083;51.508;7.966;2022-07-09T00:13:18;15.80;99.90
6106;DHT22;3083;51.508;7.966;2022-07-09T00:15:45;15.70;99.90
6106;DHT22;3083;51.508;7.966;2022-07-09T00:18:12;15.70;99.90
6106;DHT22;3083;51.508;7.966;2022-07-09T00:20:39;15.70;99.90
6106;DHT22;3083;51.508;7.966;2022-07-09T00:23:06;15.60;99.90
6106;DHT22;3083;51.508;7.966;2022-07-09T00:25:33;15.60;99.90
6106;DHT22;3083;51.508;7.966;2022-07-09T00:28:01;15.60;99.90
6106;DHT22;3083;51.508;7.966;2022-07-09T00:30:28;15.60;99.90
6106;DHT22;3083;51.508;7.966;2022-07-09T00:32:55;15.60;99.90
6106;DHT22;3083;51.508;7.966;2022-07-09T00:35:22;15.60;99.90
6106;DHT22;3083;51.508;7.966;2022-07-09T00:37:49;15.50;99.90
6106;DHT22;3083;51.508;7.966;2022-07-09T00:40:16;15.50;99.90
6106;DHT22;3083;51.508;7.966;2022-07-09T00:42:43;15.50;99.90
6106;DHT22;3083;51.508;7.966;2022-07-09T00:45:12;15.50;99.90
6106;DHT22;3083;51.508;7.966;2022-07-09T00:47:38;15.50;99.90
6106;DHT22;3083;51.508;7.966;2022-07-09T00:50:06;15.40;99.90
6106;DHT22;3083;51.508;7.966;2022-07-09T00:52:35;15.50;99.90
6106;DHT22;3083;51.508;7.966;2022-07-09T00:55:05;15.50;99.90
6106;DHT22;3083;51.508;7.966;2022-07-09T00:57:33;15.50;99.90
6106;DHT22;3083;51.508;7.966;2022-07-09T01:00:00;15.50;99.90
6106;DHT22;3083;51.508;7.966;2022-07-09T01:02:28;15.50;99.90
6106;DHT22;3083;51.508;7.966;2022-07-09T01:04:55;15.60;99.90
6106;DHT22;3083;51.508;7.966;2022-07-09T01:07:22;15.50;99.90
6106;DHT22;3083;51.508;7.966;2022-07-09T01:09:49;15.50;99.90
6106;DHT22;3083;51.508;7.966;2022-07-09T01:12:16;15.50;99.90
6106;DHT22;3083;51.508;7.966;2022-07-09T01:14:43;15.50;99.90
6106;DHT22;3083;51.508;7.966;2022-07-09T01:17:10;15.50;99.90
6106;DHT22;3083;51.508;7.966;2022-07-09T01:19:38;15.50;99.90
6106;DHT22;3083;51.508;7.966;2022-07-09T01:22:07;15.50;99.90
6106;DHT22;3083;51.508;7.966;2022-07-09T01:24:34;15.60;99.90
6106;DHT22;3083;51.508;7.966;2022-07-09T01:27:02;15.60;99.90
6106;DHT22;3083;51.508;7.966;2022-07-09T01:29:29;15.60;99.90
6106;DHT22;3083;51.508;7.966;2022-07-09T01:31:56;15.60;99.90
6106;DHT22;3083;51.508;7.966;2022-07-09T01:34:23;15.60;99.90
6106;DHT22;3083;51.508;7.966;2022-07-09T01:36:50;15.70;99.90
6106;DHT22;3083;51.508;7.966;2022-07-09T01:39:19;15.70;99.90
6106;DHT22;3083;51.508;7.966;2022-07-09T01:41:45;15.70;99.90
6106;DHT22;3083;51.508;7.966;2022-07-09T01:44:13;15.80;99.90
6106;DHT22;3083;51.508;7.966;2022-07-09T01:46:40;15.80;99.90
6106;DHT22;3083;51.508;7.966;2022-07-09T01:49:07;15.80;99.90
6106;DHT22;3083;51.508;7.966;2022-07-09T01:51:34;15.80;99.90
6106;DHT22;3083;51.508;7.966;2022-07-09T01:54:01;15.80;99.90
6106;DHT22;3083;51.508;7.966;2022-07-09T01:56:30;15.80;99.90
6106;DHT22;3083;51.508;7.966;2022-07-09T01:58:58;15.80;99.90
6106;DHT22;3083;51.508;7.966;2022-07-09T02:01:25;15.80;99.90
6106;DHT22;3083;51.508;7.966;2022-07-09T02:03:52;15.90;99.90
6106;DHT22;3083;51.508;7.966;2022-07-09T02:06:19;15.90;99.90
6106;DHT22;3083;51.508;7.966;2022-07-09T02:08:46;15.90;99.90
6106;DHT22;3083;51.508;7.966;2022-07-09T02:11:13;15.90;99.90
6106;DHT22;3083;51.508;7.966;2022-07-09T02:13:42;15.90;99.90
6106;DHT22;3083;51.508;7.966;2022-07-09T02:16:09;15.90;99.90
6106;DHT22;3083;51.508;7.966;2022-07-09T02:18:36;15.80;99.90
6106;DHT22;3083;51.508;7.966;2022-07-09T02:21:03;15.80;99.90
6106;DHT22;3083;51.508;7.966;2022-07-09T02:23:31;15.70;99.90
6106;DHT22;3083;51.508;7.966;2022-07-09T02:25:58;15.70;99.90
6106;DHT22;3083;51.508;7.966;2022-07-09T02:28:25;15.70;99.90
6106;DHT22;3083;51.508;7.966;2022-07-09T02:30:53;15.80;99.90
6106;DHT22;3083;51.508;7.966;2022-07-09T02:33:20;15.70;99.90
6106;DHT22;3083;51.508;7.966;2022-07-09T02:35:47;15.70;99.90
6106;DHT22;3083;51.508;7.966;2022-07-09T02:38:14;15.60;99.90
6106;DHT22;3083;51.508;7.966;2022-07-09T02:40:41;15.60;99.90
6106;DHT22;3083;51.508;7.966;2022-07-09T02:43:08;15.60;99.90
6106;DHT22;3083;51.508;7.966;2022-07-09T02:45:35;15.60;99.90
6106;DHT22;3083;51.508;7.966;2022-07-09T02:48:03;15.50;99.90
6106;DHT22;3083;51.508;7.966;2022-07-09T02:50:30;15.50;99.90
6106;DHT22;3083;51.508;7.966;2022-07-09T02:52:58;15.40;99.90
6106;DHT22;3083;51.508;7.966;2022-07-09T02:55:25;15.30;99.90
6106;DHT22;3083;51.508;7.966;2022-07-09T02:57:52;15.30;99.90
6106;DHT22;3083;51.508;7.966;2022-07-09T03:00:19;15.30;99.90
6106;DHT22;3083;51.508;7.966;2022-07-09T03:02:46;15.20;99.90
6106;DHT22;3083;51.508;7.966;2022-07-09T03:05:15;15.20;99.90
6106;DHT22;3083;51.508;7.966;2022-07-09T03:07:42;15.20;99.90
6106;DHT22;3083;51.508;7.966;2022-07-09T03:10:09;15.30;99.90
6106;DHT22;3083;51.508;7.966;2022-07-09T03:12:36;15.20;99.90
6106;DHT22;3083;51.508;7.966;2022-07-09T03:15:03;15.30;99.90
6106;DHT22;3083;51.508;7.966;2022-07-09T03:17:30;15.30;99.90
6106;DHT22;3083;51.508;7.966;2022-07-09T03:19:57;15.30;99.90
6106;DHT22;3083;51.508;7.966;2022-07-09T03:22:26;15.30;99.90
6106;DHT22;3083;51.508;7.966;2022-07-09T03:24:53;15.40;99.90
6106;DHT22;3083;51.508;7.966;2022-07-09T03:27:20;15.40;99.90
6106;DHT22;3083;51.508;7.966;2022-07-09T03:29:47;15.40;99.90
6106;DHT22;3083;51.508;7.966;2022-07-09T03:32:15;15.40;99.90
6106;DHT22;3083;51.508;7.966;2022-07-09T03:34:42;15.40;99.90
6106;DHT22;3083;51.508;7.966;2022-07-09T03:37:09;15.50;99.90
6106;DHT22;3083;51.508;7.966;2022-07-09T03:39:37;15.50;99.90
6106;DHT22;3083;51.508;7.966;2022-07-09T03:42:04;15.50;99.90
6106;DHT22;3083;51.508;7.966;2022-07-09T03:44:32;15.50;99.90
6106;DHT22;3083;51.508;7.966;2022-07-09T03:46:59;15.50;99.90
6106;DHT22;3083;51.508;7.966;2022-07-09T03:49:26;15.50;99.90
6106;DHT22;3083;51.508;7.966;2022-07-09T03:51:54;15.50;99.90
6106;DHT22;3083;51.508;7.966;2022-07-09T03:54:21;15.50;99.90
6106;DHT22;3083;51.508;7.966;2022-07-09T03:56:49;15.50;99.90
6106;DHT22;3083;51.508;7.966;2022-07-09T03:59:16;15.50;99.90
6106;DHT22;3083;51.508;7.966;2022-07-09T04:01:43;15.50;99.90
6106;DHT22;3083;51.508;7.966;2022-07-09T04:04:10;15.60;99.90
6106;DHT22;3083;51.508;7.966;2022-07-09T04:06:37;15.60;99.90
6106;DHT22;3083;51.508;7.966;2022-07-09T04:09:04;15.70;99.90
6106;DHT22;3083;51.508;7.966;2022-07-09T04:11:32;15.70;99.90
6106;DHT22;3083;51.508;7.966;2022-07-09T04:14:01;15.70;99.90
6106;DHT22;3083;51.508;7.966;2022-07-09T04:16:28;15.80;99.90
6106;DHT22;3083;51.508;7.966;2022-07-09T04:18:55;15.70;99.90
6106;DHT22;3083;51.508;7.966;2022-07-09T04:21:22;15.80;99.90
6106;DHT22;3083;51.508;7.966;2022-07-09T04:23:49;15.80;99.90
6106;DHT22;3083;51.508;7.966;2022-07-09T04:26:17;15.80;99.90
6106;DHT22;3083;51.508;7.966;2022-07-09T04:28:44;15.80;99.90
6106;DHT22;3083;51.508;7.966;2022-07-09T04:31:13;15.80;99.90
6106;DHT22;3083;51.508;7.966;2022-07-09T04:33:41;15.80;99.90
6106;DHT22;3083;51.508;7.966;2022-07-09T04:36:09;15.80;99.90
6106;DHT22;3083;51.508;7.966;2022-07-09T04:38:36;15.90;99.90
6106;DHT22;3083;51.508;7.966;2022-07-09T04:41:03;15.90;99.90
6106;DHT22;3083;51.508;7.966;2022-07-09T04:43:30;15.90;99.90
6106;DHT22;3083;51.508;7.966;2022-07-09T04:45:58;15.90;99.90
6106;DHT22;3083;51.508;7.966;2022-07-09T04:48:27;16.00;99.90
6106;DHT22;3083;51.508;7.966;2022-07-09T04:50:54;16.00;99.90
6106;DHT22;3083;51.508;7.966;2022-07-09T04:53:21;16.10;99.90
6106;DHT22;3083;51.508;7.966;2022-07-09T04:55:48;16.10;99.90
6106;DHT22;3083;51.508;7.966;2022-07-09T04:58:15;16.20;99.90
6106;DHT22;3083;51.508;7.966;2022-07-09T05:00:42;16.20;99.90
6106;DHT22;3083;51.508;7.966;2022-07-09T05:03:09;16.20;99.90
6106;DHT22;3083;51.508;7.966;2022-07-09T05:05:37;16.30;99.90
6106;DHT22;3083;51.508;7.966;2022-07-09T05:08:04;16.30;99.90
6106;DHT22;3083;51.508;7.966;2022-07-09T05:10:31;16.30;99.90
6106;DHT22;3083;51.508;7.966;2022-07-09T05:12:58;16.30;99.90
6106;DHT22;3083;51.508;7.966;2022-07-09T05:15:26;16.40;99.90
6106;DHT22;3083;51.508;7.966;2022-07-09T05:17:56;16.50;99.90
6106;DHT22;3083;51.508;7.966;2022-07-09T05:20:23;16.50;99.90
6106;DHT22;3083;51.508;7.966;2022-07-09T05:22:52;16.60;99.90
6106;DHT22;3083;51.508;7.966;2022-07-09T05:25:19;16.60;99.90
6106;DHT22;3083;51.508;7.966;2022-07-09T05:27:47;16.60;99.90
6106;DHT22;3083;51.508;7.966;2022-07-09T05:30:14;16.60;99.90
6106;DHT22;3083;51.508;7.966;2022-07-09T05:32:42;16.70;99.90
6106;DHT22;3083;51.508;7.966;2022-07-09T05:35:09;16.80;99.90
6106;DHT22;3083;51.508;7.966;2022-07-09T05:37:41;16.80;99.90
6106;DHT22;3083;51.508;7.966;2022-07-09T05:40:11;16.90;99.90
6106;DHT22;3083;51.508;7.966;2022-07-09T05:42:38;16.90;99.90
6106;DHT22;3083;51.508;7.966;2022-07-09T05:45:06;16.90;99.90
6106;DHT22;3083;51.508;7.966;2022-07-09T05:47:34;17.00;99.90
6106;DHT22;3083;51.508;7.966;2022-07-09T05:50:01;17.10;99.90
6106;DHT22;3083;51.508;7.966;2022-07-09T05:52:28;17.20;99.90
6106;DHT22;3083;51.508;7.966;2022-07-09T05:54:55;17.30;99.90
6106;DHT22;3083;51.508;7.966;2022-07-09T05:57:23;17.30;99.90
6106;DHT22;3083;51.508;7.966;2022-07-09T05:59:50;17.40;99.90
6106;DHT22;3083;51.508;7.966;2022-07-09T06:02:17;17.40;99.90
6106;DHT22;3083;51.508;7.966;2022-07-09T06:04:45;17.40;99.90
6106;DHT22;3083;51.508;7.966;2022-07-09T06:07:12;17.50;99.90
6106;DHT22;3083;51.508;7.966;2022-07-09T06:09:39;17.60;99.90
6106;DHT22;3083;51.508;7.966;2022-07-09T06:12:07;17.60;99.90
6106;DHT22;3083;51.508;7.966;2022-07-09T06:14:35;17.70;99.90
6106;DHT22;3083;51.508;7.966;2022-07-09T06:17:03;17.90;99.90
6106;DHT22;3083;51.508;7.966;2022-07-09T06:19:32;18.00;99.90
6106;DHT22;3083;51.508;7.966;2022-07-09T06:22:00;18.10;99.90
6106;DHT22;3083;51.508;7.966;2022-07-09T06:24:27;18.40;99.90
6106;DHT22;3083;51.508;7.966;2022-07-09T06:26:55;18.70;99.90
6106;DHT22;3083;51.508;7.966;2022-07-09T06:29:23;19.00;99.90
6106;DHT22;3083;51.508;7.966;2022-07-09T06:31:51;19.20;99.90
6106;DHT22;3083;51.508;7.966;2022-07-09T06:34:18;19.40;99.90
6106;DHT22;3083;51.508;7.966;2022-07-09T06:36:45;19.50;99.90
6106;DHT22;3083;51.508;7.966;2022-07-09T06:39:12;19.50;99.90
6106;DHT22;3083;51.508;7.966;2022-07-09T06:42:03;19.60;99.90
6106;DHT22;3083;51.508;7.966;2022-07-09T06:44:31;19.70;99.90
6106;DHT22;3083;51.508;7.966;2022-07-09T06:46:59;19.70;99.90
6106;DHT22;3083;51.508;7.966;2022-07-09T06:49:27;19.70;99.90
6106;DHT22;3083;51.508;7.966;2022-07-09T06:51:54;19.80;99.90
6106;DHT22;3083;51.508;7.966;2022-07-09T06:54:21;19.90;99.90
6106;DHT22;3083;51.508;7.966;2022-07-09T06:56:48;19.90;99.90
6106;DHT22;3083;51.508;7.966;2022-07-09T06:59:15;20.00;99.90
6106;DHT22;3083;51.508;7.966;2022-07-09T07:01:43;20.00;99.90
6106;DHT22;3083;51.508;7.966;2022-07-09T07:04:12;19.90;99.90
6106;DHT22;3083;51.508;7.966;2022-07-09T07:06:40;19.80;99.90
6106;DHT22;3083;51.508;7.966;2022-07-09T07:09:07;19.80;99.90
6106;DHT22;3083;51.508;7.966;2022-07-09T07:11:34;19.80;99.90
6106;DHT22;3083;51.508;7.966;2022-07-09T07:14:01;20.00;99.90
6106;DHT22;3083;51.508;7.966;2022-07-09T07:16:28;20.30;99.90
6106;DHT22;3083;51.508;7.966;2022-07-09T07:18:55;20.50;99.90
6106;DHT22;3083;51.508;7.966;2022-07-09T07:21:23;20.60;99.90
6106;DHT22;3083;51.508;7.966;2022-07-09T07:23:50;20.60;99.90
6106;DHT22;3083;51.508;7.966;2022-07-09T07:26:17;20.60;99.90
6106;DHT22;3083;51.508;7.966;2022-07-09T07:28:44;20.80;99.90
6106;DHT22;3083;51.508;7.966;2022-07-09T07:31:11;20.90;99.90
6106;DHT22;3083;51.508;7.966;2022-07-09T07:33:38;20.90;99.90
6106;DHT22;3083;51.508;7.966;2022-07-09T07:36:05;20.90;99.90
6106;DHT22;3083;51.508;7.966;2022-07-09T07:38:35;21.10;99.90
6106;DHT22;3083;51.508;7.966;2022-07-09T07:41:02;21.30;99.90
6106;DHT22;3083;51.508;7.966;2022-07-09T07:43:29;21.50;99.90
6106;DHT22;3083;51.508;7.966;2022-07-09T07:45:56;21.60;99.90
6106;DHT22;3083;51.508;7.966;2022-07-09T07:48:23;21.90;99.90
6106;DHT22;3083;51.508;7.966;2022-07-09T07:50:53;22.20;99.90
6106;DHT22;3083;51.508;7.966;2022-07-09T07:53:20;22.20;99.90
6106;DHT22;3083;51.508;7.966;2022-07-09T07:55:49;22.30;99.90
6106;DHT22;3083;51.508;7.966;2022-07-09T07:58:16;22.50;99.90
6106;DHT22;3083;51.508;7.966;2022-07-09T08:00:43;22.90;99.90
6106;DHT22;3083;51.508;7.966;2022-07-09T08:03:10;23.20;99.90
6106;DHT22;3083;51.508;7.966;2022-07-09T08:05:37;23.60;99.90
6106;DHT22;3083;51.508;7.966;2022-07-09T08:08:04;23.90;99.90
6106;DHT22;3083;51.508;7.966;2022-07-09T08:10:31;24.00;99.90
6106;DHT22;3083;51.508;7.966;2022-07-09T08:12:59;24.00;99.90
6106;DHT22;3083;51.508;7.966;2022-07-09T08:15:26;24.00;99.90
6106;DHT22;3083;51.508;7.966;2022-07-09T08:17:53;24.10;99.90
6106;DHT22;3083;51.508;7.966;2022-07-09T08:20:20;24.20;99.90
6106;DHT22;3083;51.508;7.966;2022-07-09T08:22:47;24.20;99.90
6106;DHT22;3083;51.508;7.966;2022-07-09T08:25:14;24.20;99.90
6106;DHT22;3083;51.508;7.966;2022-07-09T08:27:41;24.40;99.90
6106;DHT22;3083;51.508;7.966;2022-07-09T08:30:10;24.70;99.90
6106;DHT22;3083;51.508;7.966;2022-07-09T08:32:37;24.60;99.90
6106;DHT22;3083;51.508;7.966;2022-07-09T08:35:06;24.70;99.90
6106;DHT22;3083;51.508;7.966;2022-07-09T08:37:33;24.70;99.90
6106;DHT22;3083;51.508;7.966;2022-07-09T08:40:01;24.40;99.90
6106;DHT22;3083;51.508;7.966;2022-07-09T08:42:28;24.10;99.90
6106;DHT22;3083;51.508;7.966;2022-07-09T08:44:55;23.70;99.90
6106;DHT22;3083;51.508;7.966;2022-07-09T08:47:24;23.60;99.90
6106;DHT22;3083;51.508;7.966;2022-07-09T08:49:55;23.80;99.90
6106;DHT22;3083;51.508;7.966;2022-07-09T08:52:24;24.00;99.90
6106;DHT22;3083;51.508;7.966;2022-07-09T08:54:52;24.50;99.90
6106;DHT22;3083;51.508;7.966;2022-07-09T08:57:20;25.10;99.90
6106;DHT22;3083;51.508;7.966;2022-07-09T08:59:47;25.60;99.90
6106;DHT22;3083;51.508;7.966;2022-07-09T09:02:14;25.80;99.90
6106;DHT22;3083;51.508;7.966;2022-07-09T09:04:47;25.80;99.90
6106;DHT22;3083;51.508;7.966;2022-07-09T09:07:15;25.90;99.90
6106;DHT22;3083;51.508;7.966;2022-07-09T09:09:42;25.60;99.90
6106;DHT22;3083;51.508;7.966;2022-07-09T09:12:09;25.20;99.90
6106;DHT22;3083;51.508;7.966;2022-07-09T09:14:36;24.70;99.90
6106;DHT22;3083;51.508;7.966;2022-07-09T09:17:07;24.30;99.90
6106;DHT22;3083;51.508;7.966;2022-07-09T09:19:35;23.90;99.90
6106;DHT22;3083;51.508;7.966;2022-07-09T09:22:04;23.90;99.90
6106;DHT22;3083;51.508;7.966;2022-07-09T09:24:31;24.40;99.90
6106;DHT22;3083;51.508;7.966;2022-07-09T09:27:00;25.10;99.90
6106;DHT22;3083;51.508;7.966;2022-07-09T09:29:27;25.60;99.90
6106;DHT22;3083;51.508;7.966;2022-07-09T09:31:55;25.60;99.90
6106;DHT22;3083;51.508;7.966;2022-07-09T09:34:23;25.40;99.90
6106;DHT22;3083;51.508;7.966;2022-07-09T09:36:51;25.00;99.90
6106;DHT22;3083;51.508;7.966;2022-07-09T09:39:20;24.80;99.90
6106;DHT22;3083;51.508;7.966;2022-07-09T09:41:49;24.60;99.90
6106;DHT22;3083;51.508;7.966;2022-07-09T09:44:17;24.50;99.90
6106;DHT22;3083;51.508;7.966;2022-07-09T09:46:46;24.70;99.90
6106;DHT22;3083;51.508;7.966;2022-07-09T09:49:14;24.70;99.90
6106;DHT22;3083;51.508;7.966;2022-07-09T09:51:54;24.80;99.90
6106;DHT22;3083;51.508;7.966;2022-07-09T09:54:24;24.80;99.90
6106;DHT22;3083;51.508;7.966;2022-07-09T09:56:51;24.90;99.90
6106;DHT22;3083;51.508;7.966;2022-07-09T09:59:18;25.00;99.90
6106;DHT22;3083;51.508;7.966;2022-07-09T10:01:46;25.00;99.90
6106;DHT22;3083;51.508;7.966;2022-07-09T10:04:14;24.80;99.90
6106;DHT22;3083;51.508;7.966;2022-07-09T10:06:42;24.70;99.90
6106;DHT22;3083;51.508;7.966;2022-07-09T10:09:11;24.50;99.90
6106;DHT22;3083;51.508;7.966;2022-07-09T10:11:41;24.40;99.90
6106;DHT22;3083;51.508;7.966;2022-07-09T10:14:15;24.20;99.90
6106;DHT22;3083;51.508;7.966;2022-07-09T10:16:42;24.10;99.90
6106;DHT22;3083;51.508;7.966;2022-07-09T10:19:09;24.00;99.90
6106;DHT22;3083;51.508;7.966;2022-07-09T10:21:38;23.90;99.90
6106;DHT22;3083;51.508;7.966;2022-07-09T10:24:08;23.80;99.90
6106;DHT22;3083;51.508;7.966;2022-07-09T10:26:45;23.70;99.90
6106;DHT22;3083;51.508;7.966;2022-07-09T10:29:21;23.80;99.90
6106;DHT22;3083;51.508;7.966;2022-07-09T10:31:48;23.90;99.90
6106;DHT22;3083;51.508;7.966;2022-07-09T10:34:37;23.80;99.90
6106;DHT22;3083;51.508;7.966;2022-07-09T10:37:05;23.70;99.90
6106;DHT22;3083;51.508;7.966;2022-07-09T10:39:33;23.70;99.90
6106;DHT22;3083;51.508;7.966;2022-07-09T10:42:03;23.80;99.90
6106;DHT22;3083;51.508;7.966;2022-07-09T10:44:35;23.90;99.90
6106;DHT22;3083;51.508;7.966;2022-07-09T10:47:03;23.90;99.90
6106;DHT22;3083;51.508;7.966;2022-07-09T10:49:33;23.90;99.90
6106;DHT22;3083;51.508;7.966;2022-07-09T10:52:15;24.00;99.90
6106;DHT22;3083;51.508;7.966;2022-07-09T10:54:46;24.00;99.90
6106;DHT22;3083;51.508;7.966;2022-07-09T10:57:15;24.00;99.90
6106;DHT22;3083;51.508;7.966;2022-07-09T10:59:46;24.00;99.90
6106;DHT22;3083;51.508;7.966;2022-07-09T11:02:20;24.00;99.90
6106;DHT22;3083;51.508;7.966;2022-07-09T11:04:52;23.80;99.90
6106;DHT22;3083;51.508;7.966;2022-07-09T11:07:20;23.70;99.90
6106;DHT22;3083;51.508;7.966;2022-07-09T11:09:49;23.60;99.90
6106;DHT22;3083;51.508;7.966;2022-07-09T11:12:17;23.50;99.90
6106;DHT22;3083;51.508;7.966;2022-07-09T11:14:45;23.40;99.90
6106;DHT22;3083;51.508;7.966;2022-07-09T11:17:16;23.40;99.90
6106;DHT22;3083;51.508;7.966;2022-07-09T11:19:43;23.40;99.90
6106;DHT22;3083;51.508;7.966;2022-07-09T11:22:10;23.40;99.90
6106;DHT22;3083;51.508;7.966;2022-07-09T11:24:36;23.50;99.90
6106;DHT22;3083;51.508;7.966;2022-07-09T11:27:04;23.60;99.90
6106;DHT22;3083;51.508;7.966;2022-07-09T11:29:33;23.80;99.90
6106;DHT22;3083;51.508;7.966;2022-07-09T11:32:00;23.90;99.90
6106;DHT22;3083;51.508;7.966;2022-07-09T11:34:28;24.00;99.90
6106;DHT22;3083;51.508;7.966;2022-07-09T11:36:56;24.30;99.90
6106;DHT22;3083;51.508;7.966;2022-07-09T11:39:25;24.60;99.90
6106;DHT22;3083;51.508;7.966;2022-07-09T11:41:53;24.70;99.90
6106;DHT22;3083;51.508;7.966;2022-07-09T11:44:22;24.70;99.90
6106;DHT22;3083;51.508;7.966;2022-07-09T11:47:07;24.70;99.90
6106;DHT22;3083;51.508;7.966;2022-07-09T11:49:36;24.70;99.90
6106;DHT22;3083;51.508;7.966;2022-07-09T11:52:04;24.70;99.90
6106;DHT22;3083;51.508;7.966;2022-07-09T11:54:31;24.70;99.90
6106;DHT22;3083;51.508;7.966;2022-07-09T11:56:58;25.00;99.90
6106;DHT22;3083;51.508;7.966;2022-07-09T11:59:26;25.40;99.90
6106;DHT22;3083;51.508;7.966;2022-07-09T12:01:57;25.70;99.90
6106;DHT22;3083;51.508;7.966;2022-07-09T12:04:28;25.80;99.90
6106;DHT22;3083;51.508;7.966;2022-07-09T12:06:55;26.00;99.90
6106;DHT22;3083;51.508;7.966;2022-07-09T12:09:30;26.20;99.90
6106;DHT22;3083;51.508;7.966;2022-07-09T12:11:58;26.20;99.90
6106;DHT22;3083;51.508;7.966;2022-07-09T12:14:25;26.20;99.90
6106;DHT22;3083;51.508;7.966;2022-07-09T12:16:52;26.20;99.90
6106;DHT22;3083;51.508;7.966;2022-07-09T12:19:19;26.50;99.90
6106;DHT22;3083;51.508;7.966;2022-07-09T12:21:47;26.80;99.90
6106;DHT22;3083;51.508;7.966;2022-07-09T12:24:14;27.00;99.90
6106;DHT22;3083;51.508;7.966;2022-07-09T12:26:41;27.00;99.90
6106;DHT22;3083;51.508;7.966;2022-07-09T12:29:08;27.00;99.90
6106;DHT22;3083;51.508;7.966;2022-07-09T12:31:35;26.80;99.90
6106;DHT22;3083;51.508;7.966;2022-07-09T12:34:03;26.40;99.90
6106;DHT22;3083;51.508;7.966;2022-07-09T12:36:31;26.00;99.90
6106;DHT22;3083;51.508;7.966;2022-07-09T12:38:59;25.40;99.90
6106;DHT22;3083;51.508;7.966;2022-07-09T12:41:26;25.00;99.90
6106;DHT22;3083;51.508;7.966;2022-07-09T12:43:53;24.50;99.90
6106;DHT22;3083;51.508;7.966;2022-07-09T12:46:20;24.00;99.90
6106;DHT22;3083;51.508;7.966;2022-07-09T12:48:47;23.70;99.90
6106;DHT22;3083;51.508;7.966;2022-07-09T12:51:14;23.40;99.90
6106;DHT22;3083;51.508;7.966;2022-07-09T12:53:41;23.10;99.90
6106;DHT22;3083;51.508;7.966;2022-07-09T12:56:09;22.80;99.90
6106;DHT22;3083;51.508;7.966;2022-07-09T12:58:36;22.40;99.90
6106;DHT22;3083;51.508;7.966;2022-07-09T13:01:03;22.10;99.90
6106;DHT22;3083;51.508;7.966;2022-07-09T13:03:30;21.70;99.90
6106;DHT22;3083;51.508;7.966;2022-07-09T13:05:57;21.50;99.90
6106;DHT22;3083;51.508;7.966;2022-07-09T13:08:24;21.40;99.90
6106;DHT22;3083;51.508;7.966;2022-07-09T13:10:51;21.50;99.90
6106;DHT22;3083;51.508;7.966;2022-07-09T13:13:19;21.60;99.90
6106;DHT22;3083;51.508;7.966;2022-07-09T13:15:47;21.70;99.90
6106;DHT22;3083;51.508;7.966;2022-07-09T13:18:14;21.80;99.90
6106;DHT22;3083;51.508;7.966;2022-07-09T13:20:43;21.90;99.90
6106;DHT22;3083;51.508;7.966;2022-07-09T13:23:10;22.00;99.90
6106;DHT22;3083;51.508;7.966;2022-07-09T13:25:37;22.10;99.90
6106;DHT22;3083;51.508;7.966;2022-07-09T13:28:04;22.20;99.90
6106;DHT22;3083;51.508;7.966;2022-07-09T13:30:33;22.30;99.90
6106;DHT22;3083;51.508;7.966;2022-07-09T13:33:00;22.40;99.90
6106;DHT22;3083;51.508;7.966;2022-07-09T13:35:27;22.50;99.90
6106;DHT22;3083;51.508;7.966;2022-07-09T13:37:54;22.60;99.90
6106;DHT22;3083;51.508;7.966;2022-07-09T13:40:21;22.80;99.90
6106;DHT22;3083;51.508;7.966;2022-07-09T13:42:48;23.00;99.90
6106;DHT22;3083;51.508;7.966;2022-07-09T13:45:15;23.10;99.90
6106;DHT22;3083;51.508;7.966;2022-07-09T13:47:44;23.10;99.90
6106;DHT22;3083;51.508;7.966;2022-07-09T13:50:11;23.10;99.90
6106;DHT22;3083;51.508;7.966;2022-07-09T13:52:38;23.10;99.90
6106;DHT22;3083;51.508;7.966;2022-07-09T13:55:05;23.00;99.90
6106;DHT22;3083;51.508;7.966;2022-07-09T13:57:32;22.90;99.90
6106;DHT22;3083;51.508;7.966;2022-07-09T13:59:59;22.80;99.90
6106;DHT22;3083;51.508;7.966;2022-07-09T14:02:26;22.60;99.90
6106;DHT22;3083;51.508;7.966;2022-07-09T14:04:57;22.40;99.90
6106;DHT22;3083;51.508;7.966;2022-07-09T14:07:24;22.20;99.90
6106;DHT22;3083;51.508;7.966;2022-07-09T14:09:51;22.10;99.90
6106;DHT22;3083;51.508;7.966;2022-07-09T14:12:18;22.10;99.90
6106;DHT22;3083;51.508;7.966;2022-07-09T14:14:47;22.10;99.90
6106;DHT22;3083;51.508;7.966;2022-07-09T14:17:14;22.20;99.90
6106;DHT22;3083;51.508;7.966;2022-07-09T14:19:41;22.30;99.90
6106;DHT22;3083;51.508;7.966;2022-07-09T14:22:09;22.20;99.90
6106;DHT22;3083;51.508;7.966;2022-07-09T14:24:36;22.10;99.90
6106;DHT22;3083;51.508;7.966;2022-07-09T14:27:03;22.10;99.90
6106;DHT22;3083;51.508;7.966;2022-07-09T14:29:30;22.10;99.90
6106;DHT22;3083;51.508;7.966;2022-07-09T14:31:57;22.10;99.90
6106;DHT22;3083;51.508;7.966;2022-07-09T14:34:25;22.10;99.90
6106;DHT22;3083;51.508;7.966;2022-07-09T14:36:52;22.30;99.90
6106;DHT22;3083;51.508;7.966;2022-07-09T14:39:21;22.50;99.90
6106;DHT22;3083;51.508;7.966;2022-07-09T14:41:48;22.40;99.90
6106;DHT22;3083;51.508;7.966;2022-07-09T14:44:15;22.40;99.90
6106;DHT22;3083;51.508;7.966;2022-07-09T14:46:42;22.40;99.90
6106;DHT22;3083;51.508;7.966;2022-07-09T14:49:09;22.50;99.90
6106;DHT22;3083;51.508;7.966;2022-07-09T14:51:39;22.50;99.90
6106;DHT22;3083;51.508;7.966;2022-07-09T14:54:06;22.60;99.90
6106;DHT22;3083;51.508;7.966;2022-07-09T14:56:34;22.60;99.90
6106;DHT22;3083;51.508;7.966;2022-07-09T14:59:01;22.70;99.90
6106;DHT22;3083;51.508;7.966;2022-07-09T15:01:29;22.80;99.90
6106;DHT22;3083;51.508;7.966;2022-07-09T15:03:56;23.00;99.90
6106;DHT22;3083;51.508;7.966;2022-07-09T15:06:23;23.10;99.90
6106;DHT22;3083;51.508;7.966;2022-07-09T15:08:50;23.20;99.90
6106;DHT22;3083;51.508;7.966;2022-07-09T15:11:17;23.40;99.90
6106;DHT22;3083;51.508;7.966;2022-07-09T15:13:45;23.60;99.90
6106;DHT22;3083;51.508;7.966;2022-07-09T15:16:13;23.70;99.90
6106;DHT22;3083;51.508;7.966;2022-07-09T15:18:40;23.80;99.90
6106;DHT22;3083;51.508;7.966;2022-07-09T15:21:07;23.70;99.90
6106;DHT22;3083;51.508;7.966;2022-07-09T15:23:36;23.90;99.90
6106;DHT22;3083;51.508;7.966;2022-07-09T15:26:03;23.90;99.90
6106;DHT22;3083;51.508;7.966;2022-07-09T15:28:30;23.90;99.90
6106;DHT22;3083;51.508;7.966;2022-07-09T15:30:58;23.80;99.90
6106;DHT22;3083;51.508;7.966;2022-07-09T15:33:25;23.70;99.90
6106;DHT22;3083;51.508;7.966;2022-07-09T15:35:52;23.50;99.90
6106;DHT22;3083;51.508;7.966;2022-07-09T15:38:19;23.40;99.90
6106;DHT22;3083;51.508;7.966;2022-07-09T15:40:46;23.40;99.90
6106;DHT22;3083;51.508;7.966;2022-07-09T15:43:13;23.30;99.90
6106;DHT22;3083;51.508;7.966;2022-07-09T15:45:42;23.20;99.90
6106;DHT22;3083;51.508;7.966;2022-07-09T15:48:11;23.30;99.90
6106;DHT22;3083;51.508;7.966;2022-07-09T15:50:38;23.20;99.90
6106;DHT22;3083;51.508;7.966;2022-07-09T15:53:05;23.20;99.90
6106;DHT22;3083;51.508;7.966;2022-07-09T15:55:32;23.20;99.90
6106;DHT22;3083;51.508;7.966;2022-07-09T15:57:59;23.30;99.90
6106;DHT22;3083;51.508;7.966;2022-07-09T16:00:26;23.30;99.90
6106;DHT22;3083;51.508;7.966;2022-07-09T16:02:53;23.40;99.90
6106;DHT22;3083;51.508;7.966;2022-07-09T16:05:21;23.40;99.90